sensor_id;sensor_type;location;lat;lon;timestamp;P1;durP1;ratioP1;P2;durP2;ratioP2
21886;SDS011;11108;49.988;8.182;2023-03-23T00:01:53;0.60;;;0.60;;
21886;SDS011;11108;49.988;8.182;2023-03-23T00:04:18;1.80;;;1.03;;
21886;SDS011;11108;49.988;8.182;2023-03-23T00:06:43;1.40;;;0.63;;
21886;SDS011;11108;49.988;8.182;2023-03-23T00:09:10;0.87;;;0.70;;
21886;SDS011;11108;49.988;8.182;2023-03-23T00:11:35;0.70;;;0.70;;
21886;SDS011;11108;49.988;8.182;2023-03-23T00:14:01;0.60;;;0.60;;
21886;SDS011;11108;49.988;8.182;2023-03-23T00:16:27;0.70;;;0.70;;
21886;SDS011;11108;49.988;8.182;2023-03-23T00:18:57;1.00;;;1.00;;
21886;SDS011;11108;49.988;8.182;2023-03-23T00:21:23;0.93;;;0.50;;
21886;SDS011;11108;49.988;8.182;2023-03-23T00:23:50;0.90;;;0.60;;
21886;SDS011;11108;49.988;8.182;2023-03-23T00:26:16;0.50;;;0.50;;
21886;SDS011;11108;49.988;8.182;2023-03-23T00:28:41;0.60;;;0.60;;
21886;SDS011;11108;49.988;8.182;2023-03-23T00:31:07;0.60;;;0.60;;
21886;SDS011;11108;49.988;8.182;2023-03-23T00:33:33;0.60;;;0.60;;
21886;SDS011;11108;49.988;8.182;2023-03-23T00:36:03;1.30;;;0.80;;
21886;SDS011;11108;49.988;8.182;2023-03-23T00:38:28;0.70;;;0.70;;
21886;SDS011;11108;49.988;8.182;2023-03-23T00:40:53;0.70;;;0.50;;
21886;SDS011;11108;49.988;8.182;2023-03-23T00:43:19;0.87;;;0.87;;
21886;SDS011;11108;49.988;8.182;2023-03-23T00:45:44;0.97;;;0.90;;
21886;SDS011;11108;49.988;8.182;2023-03-23T00:48:14;0.83;;;0.73;;
21886;SDS011;11108;49.988;8.182;2023-03-23T00:50:39;0.50;;;0.50;;
21886;SDS011;11108;49.988;8.182;2023-03-23T00:53:05;1.53;;;0.90;;
21886;SDS011;11108;49.988;8.182;2023-03-23T00:55:30;0.70;;;0.70;;
21886;SDS011;11108;49.988;8.182;2023-03-23T00:57:55;0.80;;;0.73;;
21886;SDS011;11108;49.988;8.182;2023-03-23T01:00:21;0.60;;;0.60;;
21886;SDS011;11108;49.988;8.182;2023-03-23T01:02:47;1.20;;;0.77;;
21886;SDS011;11108;49.988;8.182;2023-03-23T01:05:12;0.50;;;0.50;;
21886;SDS011;11108;49.988;8.182;2023-03-23T01:07:39;0.50;;;0.50;;
21886;SDS011;11108;49.988;8.182;2023-03-23T01:10:04;0.87;;;0.87;;
21886;SDS011;11108;49.988;8.182;2023-03-23T01:12:30;0.80;;;0.73;;
21886;SDS011;11108;49.988;8.182;2023-03-23T01:14:55;1.03;;;0.70;;
21886;SDS011;11108;49.988;8.182;2023-03-23T01:17:21;0.60;;;0.60;;
21886;SDS011;11108;49.988;8.182;2023-03-23T01:19:46;0.90;;;0.70;;
21886;SDS011;11108;49.988;8.182;2023-03-23T01:22:11;1.80;;;1.00;;
21886;SDS011;11108;49.988;8.182;2023-03-23T01:24:36;0.60;;;0.60;;
21886;SDS011;11108;49.988;8.182;2023-03-23T01:27:02;1.53;;;0.80;;
21886;SDS011;11108;49.988;8.182;2023-03-23T01:29:31;0.77;;;0.57;;
21886;SDS011;11108;49.988;8.182;2023-03-23T01:31:56;0.63;;;0.63;;
21886;SDS011;11108;49.988;8.182;2023-03-23T01:34:22;0.70;;;0.70;;
21886;SDS011;11108;49.988;8.182;2023-03-23T01:36:47;0.70;;;0.70;;
21886;SDS011;11108;49.988;8.182;2023-03-23T01:39:12;0.70;;;0.50;;
21886;SDS011;11108;49.988;8.182;2023-03-23T01:41:37;0.70;;;0.70;;
21886;SDS011;11108;49.988;8.182;2023-03-23T01:44:06;0.73;;;0.73;;
21886;SDS011;11108;49.988;8.182;2023-03-23T01:46:32;0.70;;;0.70;;
21886;SDS011;11108;49.988;8.182;2023-03-23T01:48:58;0.57;;;0.57;;
21886;SDS011;11108;49.988;8.182;2023-03-23T01:51:25;0.60;;;0.60;;
21886;SDS011;11108;49.988;8.182;2023-03-23T01:53:53;0.63;;;0.63;;
21886;SDS011;11108;49.988;8.182;2023-03-23T01:56:21;0.97;;;0.53;;
21886;SDS011;11108;49.988;8.182;2023-03-23T01:58:50;0.97;;;0.60;;
21886;SDS011;11108;49.988;8.182;2023-03-23T02:01:15;0.70;;;0.70;;
21886;SDS011;11108;49.988;8.182;2023-03-23T02:03:41;0.70;;;0.70;;
21886;SDS011;11108;49.988;8.182;2023-03-23T02:06:07;0.73;;;0.70;;
21886;SDS011;11108;49.988;8.182;2023-03-23T02:08:32;0.70;;;0.57;;
21886;SDS011;11108;49.988;8.182;2023-03-23T02:10:58;0.30;;;0.30;;
21886;SDS011;11108;49.988;8.182;2023-03-23T02:13:24;0.90;;;0.80;;
21886;SDS011;11108;49.988;8.182;2023-03-23T02:24:00;0.70;;;0.70;;
21886;SDS011;11108;49.988;8.182;2023-03-23T02:26:32;0.60;;;0.60;;
21886;SDS011;11108;49.988;8.182;2023-03-23T02:31:43;0.50;;;0.50;;
21886;SDS011;11108;49.988;8.182;2023-03-23T02:34:18;0.57;;;0.57;;
21886;SDS011;11108;49.988;8.182;2023-03-23T02:36:56;0.70;;;0.70;;
21886;SDS011;11108;49.988;8.182;2023-03-23T02:39:24;1.10;;;0.63;;
21886;SDS011;11108;49.988;8.182;2023-03-23T02:44:28;0.50;;;0.50;;
21886;SDS011;11108;49.988;8.182;2023-03-23T02:46:55;0.60;;;0.60;;
21886;SDS011;11108;49.988;8.182;2023-03-23T02:49:21;0.60;;;0.60;;
21886;SDS011;11108;49.988;8.182;2023-03-23T02:51:48;0.50;;;0.50;;
21886;SDS011;11108;49.988;8.182;2023-03-23T02:54:15;0.60;;;0.60;;
21886;SDS011;11108;49.988;8.182;2023-03-23T02:56:41;0.70;;;0.60;;
21886;SDS011;11108;49.988;8.182;2023-03-23T02:59:06;0.60;;;0.60;;
21886;SDS011;11108;49.988;8.182;2023-03-23T03:03:58;0.43;;;0.43;;
21886;SDS011;11108;49.988;8.182;2023-03-23T03:09:20;0.97;;;0.97;;
21886;SDS011;11108;49.988;8.182;2023-03-23T03:11:49;0.70;;;0.60;;
21886;SDS011;11108;49.988;8.182;2023-03-23T03:14:19;0.50;;;0.50;;
21886;SDS011;11108;49.988;8.182;2023-03-23T03:16:52;0.60;;;0.60;;
21886;SDS011;11108;49.988;8.182;2023-03-23T03:21:50;0.63;;;0.63;;
21886;SDS011;11108;49.988;8.182;2023-03-23T03:24:17;0.60;;;0.60;;
21886;SDS011;11108;49.988;8.182;2023-03-23T03:26:47;0.70;;;0.70;;
21886;SDS011;11108;49.988;8.182;2023-03-23T03:29:23;1.73;;;0.60;;
21886;SDS011;11108;49.988;8.182;2023-03-23T03:31:50;0.60;;;0.60;;
21886;SDS011;11108;49.988;8.182;2023-03-23T03:34:20;0.63;;;0.63;;
21886;SDS011;11108;49.988;8.182;2023-03-23T03:36:45;0.50;;;0.50;;
21886;SDS011;11108;49.988;8.182;2023-03-23T03:39:12;0.60;;;0.60;;
21886;SDS011;11108;49.988;8.182;2023-03-23T03:41:39;0.60;;;0.60;;
21886;SDS011;11108;49.988;8.182;2023-03-23T03:44:05;0.70;;;0.57;;
21886;SDS011;11108;49.988;8.182;2023-03-23T03:46:31;0.70;;;0.50;;
21886;SDS011;11108;49.988;8.182;2023-03-23T03:48:57;1.43;;;0.83;;
21886;SDS011;11108;49.988;8.182;2023-03-23T03:51:23;0.70;;;0.70;;
21886;SDS011;11108;49.988;8.182;2023-03-23T03:53:48;0.60;;;0.60;;
21886;SDS011;11108;49.988;8.182;2023-03-23T03:56:13;0.50;;;0.50;;
21886;SDS011;11108;49.988;8.182;2023-03-23T03:58:39;0.60;;;0.60;;
21886;SDS011;11108;49.988;8.182;2023-03-23T04:01:07;0.83;;;0.83;;
21886;SDS011;11108;49.988;8.182;2023-03-23T04:03:34;0.63;;;0.63;;
21886;SDS011;11108;49.988;8.182;2023-03-23T04:06:00;0.50;;;0.50;;
21886;SDS011;11108;49.988;8.182;2023-03-23T04:08:25;0.80;;;0.80;;
21886;SDS011;11108;49.988;8.182;2023-03-23T04:10:51;0.50;;;0.50;;
21886;SDS011;11108;49.988;8.182;2023-03-23T04:13:17;0.67;;;0.67;;
21886;SDS011;11108;49.988;8.182;2023-03-23T04:15:43;0.60;;;0.60;;
21886;SDS011;11108;49.988;8.182;2023-03-23T04:18:08;0.73;;;0.73;;
21886;SDS011;11108;49.988;8.182;2023-03-23T04:20:34;0.80;;;0.80;;
21886;SDS011;11108;49.988;8.182;2023-03-23T04:22:59;0.70;;;0.70;;
21886;SDS011;11108;49.988;8.182;2023-03-23T04:25:25;0.83;;;0.60;;
21886;SDS011;11108;49.988;8.182;2023-03-23T04:27:50;0.70;;;0.70;;
21886;SDS011;11108;49.988;8.182;2023-03-23T04:30:23;0.70;;;0.70;;
21886;SDS011;11108;49.988;8.182;2023-03-23T04:32:49;0.60;;;0.60;;
21886;SDS011;11108;49.988;8.182;2023-03-23T04:35:15;0.60;;;0.60;;
21886;SDS011;11108;49.988;8.182;2023-03-23T04:37:41;0.50;;;0.50;;
21886;SDS011;11108;49.988;8.182;2023-03-23T04:40:08;0.67;;;0.67;;
21886;SDS011;11108;49.988;8.182;2023-03-23T04:42:37;0.53;;;0.53;;
21886;SDS011;11108;49.988;8.182;2023-03-23T04:45:03;0.60;;;0.60;;
21886;SDS011;11108;49.988;8.182;2023-03-23T04:47:31;0.53;;;0.53;;
21886;SDS011;11108;49.988;8.182;2023-03-23T04:49:57;0.53;;;0.53;;
21886;SDS011;11108;49.988;8.182;2023-03-23T04:52:22;0.60;;;0.60;;
21886;SDS011;11108;49.988;8.182;2023-03-23T04:54:49;0.60;;;0.60;;
21886;SDS011;11108;49.988;8.182;2023-03-23T04:57:15;0.70;;;0.70;;
21886;SDS011;11108;49.988;8.182;2023-03-23T04:59:40;0.40;;;0.40;;
21886;SDS011;11108;49.988;8.182;2023-03-23T05:02:06;0.47;;;0.47;;
21886;SDS011;11108;49.988;8.182;2023-03-23T05:04:31;0.73;;;0.73;;
21886;SDS011;11108;49.988;8.182;2023-03-23T05:06:58;0.70;;;0.70;;
21886;SDS011;11108;49.988;8.182;2023-03-23T05:09:23;0.70;;;0.70;;
21886;SDS011;11108;49.988;8.182;2023-03-23T05:11:48;0.50;;;0.50;;
21886;SDS011;11108;49.988;8.182;2023-03-23T05:14:14;0.97;;;0.60;;
21886;SDS011;11108;49.988;8.182;2023-03-23T05:16:39;1.30;;;0.80;;
21886;SDS011;11108;49.988;8.182;2023-03-23T05:19:05;0.60;;;0.60;;
21886;SDS011;11108;49.988;8.182;2023-03-23T05:21:30;0.57;;;0.47;;
21886;SDS011;11108;49.988;8.182;2023-03-23T05:23:56;0.50;;;0.50;;
21886;SDS011;11108;49.988;8.182;2023-03-23T05:26:21;0.50;;;0.50;;
21886;SDS011;11108;49.988;8.182;2023-03-23T05:28:48;0.73;;;0.70;;
21886;SDS011;11108;49.988;8.182;2023-03-23T05:31:17;0.40;;;0.40;;
21886;SDS011;11108;49.988;8.182;2023-03-23T05:33:43;0.60;;;0.60;;
21886;SDS011;11108;49.988;8.182;2023-03-23T05:36:08;0.60;;;0.60;;
21886;SDS011;11108;49.988;8.182;2023-03-23T05:38:35;0.70;;;0.70;;
21886;SDS011;11108;49.988;8.182;2023-03-23T05:41:01;1.10;;;0.77;;
21886;SDS011;11108;49.988;8.182;2023-03-23T05:43:26;0.70;;;0.70;;
21886;SDS011;11108;49.988;8.182;2023-03-23T05:45:52;0.50;;;0.50;;
21886;SDS011;11108;49.988;8.182;2023-03-23T05:48:17;0.80;;;0.80;;
21886;SDS011;11108;49.988;8.182;2023-03-23T05:50:42;0.70;;;0.70;;
21886;SDS011;11108;49.988;8.182;2023-03-23T05:53:07;1.70;;;0.67;;
21886;SDS011;11108;49.988;8.182;2023-03-23T05:55:33;0.70;;;0.70;;
21886;SDS011;11108;49.988;8.182;2023-03-23T05:57:58;0.70;;;0.70;;
21886;SDS011;11108;49.988;8.182;2023-03-23T06:00:23;0.87;;;0.87;;
21886;SDS011;11108;49.988;8.182;2023-03-23T06:02:49;0.53;;;0.53;;
21886;SDS011;11108;49.988;8.182;2023-03-23T06:05:15;0.73;;;0.73;;
21886;SDS011;11108;49.988;8.182;2023-03-23T06:07:41;0.67;;;0.67;;
21886;SDS011;11108;49.988;8.182;2023-03-23T06:10:06;0.60;;;0.57;;
21886;SDS011;11108;49.988;8.182;2023-03-23T06:12:33;0.57;;;0.57;;
21886;SDS011;11108;49.988;8.182;2023-03-23T06:14:59;0.53;;;0.53;;
21886;SDS011;11108;49.988;8.182;2023-03-23T06:17:24;0.43;;;0.43;;
21886;SDS011;11108;49.988;8.182;2023-03-23T06:19:50;0.63;;;0.63;;
21886;SDS011;11108;49.988;8.182;2023-03-23T06:22:15;0.60;;;0.60;;
21886;SDS011;11108;49.988;8.182;2023-03-23T06:24:41;0.60;;;0.60;;
21886;SDS011;11108;49.988;8.182;2023-03-23T06:27:06;1.30;;;0.80;;
21886;SDS011;11108;49.988;8.182;2023-03-23T06:29:33;0.60;;;0.60;;
21886;SDS011;11108;49.988;8.182;2023-03-23T06:31:59;0.80;;;0.80;;
21886;SDS011;11108;49.988;8.182;2023-03-23T06:34:25;1.23;;;1.10;;
21886;SDS011;11108;49.988;8.182;2023-03-23T06:36:51;0.60;;;0.60;;
21886;SDS011;11108;49.988;8.182;2023-03-23T06:39:16;0.60;;;0.60;;
21886;SDS011;11108;49.988;8.182;2023-03-23T06:41:41;0.83;;;0.70;;
21886;SDS011;11108;49.988;8.182;2023-03-23T06:44:07;0.40;;;0.40;;
21886;SDS011;11108;49.988;8.182;2023-03-23T06:46:33;0.90;;;0.70;;
21886;SDS011;11108;49.988;8.182;2023-03-23T06:48:58;0.60;;;0.60;;
21886;SDS011;11108;49.988;8.182;2023-03-23T06:51:24;0.60;;;0.60;;
21886;SDS011;11108;49.988;8.182;2023-03-23T06:53:49;0.73;;;0.73;;
21886;SDS011;11108;49.988;8.182;2023-03-23T06:56:15;1.73;;;0.70;;
21886;SDS011;11108;49.988;8.182;2023-03-23T06:58:40;0.60;;;0.60;;
21886;SDS011;11108;49.988;8.182;2023-03-23T07:01:10;0.77;;;0.60;;
21886;SDS011;11108;49.988;8.182;2023-03-23T07:03:35;0.80;;;0.80;;
21886;SDS011;11108;49.988;8.182;2023-03-23T07:06:01;1.57;;;0.60;;
21886;SDS011;11108;49.988;8.182;2023-03-23T07:08:27;1.03;;;0.63;;
21886;SDS011;11108;49.988;8.182;2023-03-23T07:10:52;0.70;;;0.70;;
21886;SDS011;11108;49.988;8.182;2023-03-23T07:13:18;0.60;;;0.60;;
21886;SDS011;11108;49.988;8.182;2023-03-23T07:15:43;0.73;;;0.73;;
21886;SDS011;11108;49.988;8.182;2023-03-23T07:18:09;1.37;;;0.87;;
21886;SDS011;11108;49.988;8.182;2023-03-23T07:20:34;0.80;;;0.80;;
21886;SDS011;11108;49.988;8.182;2023-03-23T07:22:59;0.70;;;0.70;;
21886;SDS011;11108;49.988;8.182;2023-03-23T07:25:26;0.83;;;0.60;;
21886;SDS011;11108;49.988;8.182;2023-03-23T07:27:52;0.70;;;0.70;;
21886;SDS011;11108;49.988;8.182;2023-03-23T07:30:17;0.50;;;0.50;;
21886;SDS011;11108;49.988;8.182;2023-03-23T07:32:42;0.63;;;0.63;;
21886;SDS011;11108;49.988;8.182;2023-03-23T07:35:08;0.60;;;0.60;;
21886;SDS011;11108;49.988;8.182;2023-03-23T07:37:34;0.70;;;0.70;;
21886;SDS011;11108;49.988;8.182;2023-03-23T07:40:00;0.80;;;0.80;;
21886;SDS011;11108;49.988;8.182;2023-03-23T07:42:33;0.60;;;0.60;;
21886;SDS011;11108;49.988;8.182;2023-03-23T07:44:58;0.60;;;0.60;;
21886;SDS011;11108;49.988;8.182;2023-03-23T07:47:23;1.53;;;0.60;;
21886;SDS011;11108;49.988;8.182;2023-03-23T07:49:49;0.73;;;0.60;;
21886;SDS011;11108;49.988;8.182;2023-03-23T07:52:14;1.13;;;0.70;;
21886;SDS011;11108;49.988;8.182;2023-03-23T07:54:39;0.60;;;0.60;;
21886;SDS011;11108;49.988;8.182;2023-03-23T07:57:04;0.93;;;0.90;;
21886;SDS011;11108;49.988;8.182;2023-03-23T07:59:31;0.63;;;0.60;;
21886;SDS011;11108;49.988;8.182;2023-03-23T08:01:56;0.73;;;0.73;;
21886;SDS011;11108;49.988;8.182;2023-03-23T08:04:23;0.53;;;0.53;;
21886;SDS011;11108;49.988;8.182;2023-03-23T08:06:48;0.77;;;0.60;;
21886;SDS011;11108;49.988;8.182;2023-03-23T08:09:13;1.13;;;0.80;;
21886;SDS011;11108;49.988;8.182;2023-03-23T08:11:38;0.80;;;0.80;;
21886;SDS011;11108;49.988;8.182;2023-03-23T08:14:04;3.93;;;1.27;;
21886;SDS011;11108;49.988;8.182;2023-03-23T08:16:30;2.10;;;0.90;;
21886;SDS011;11108;49.988;8.182;2023-03-23T08:18:55;0.57;;;0.57;;
21886;SDS011;11108;49.988;8.182;2023-03-23T08:21:21;4.13;;;0.77;;
21886;SDS011;11108;49.988;8.182;2023-03-23T08:23:47;0.80;;;0.80;;
21886;SDS011;11108;49.988;8.182;2023-03-23T08:26:12;2.00;;;0.70;;
21886;SDS011;11108;49.988;8.182;2023-03-23T08:28:37;0.67;;;0.67;;
21886;SDS011;11108;49.988;8.182;2023-03-23T08:31:10;2.00;;;0.70;;
21886;SDS011;11108;49.988;8.182;2023-03-23T08:33:35;1.10;;;0.93;;
21886;SDS011;11108;49.988;8.182;2023-03-23T08:36:01;1.37;;;0.73;;
21886;SDS011;11108;49.988;8.182;2023-03-23T08:38:26;1.63;;;1.23;;
21886;SDS011;11108;49.988;8.182;2023-03-23T08:40:56;1.27;;;0.80;;
21886;SDS011;11108;49.988;8.182;2023-03-23T08:43:21;0.70;;;0.70;;
21886;SDS011;11108;49.988;8.182;2023-03-23T08:45:47;1.23;;;1.07;;
21886;SDS011;11108;49.988;8.182;2023-03-23T08:48:12;0.70;;;0.53;;
21886;SDS011;11108;49.988;8.182;2023-03-23T08:50:38;1.13;;;0.93;;
21886;SDS011;11108;49.988;8.182;2023-03-23T08:53:03;0.70;;;0.70;;
21886;SDS011;11108;49.988;8.182;2023-03-23T08:55:28;2.33;;;0.63;;
21886;SDS011;11108;49.988;8.182;2023-03-23T08:57:54;0.70;;;0.70;;
21886;SDS011;11108;49.988;8.182;2023-03-23T09:00:20;0.60;;;0.60;;
21886;SDS011;11108;49.988;8.182;2023-03-23T09:02:46;1.43;;;0.60;;
21886;SDS011;11108;49.988;8.182;2023-03-23T09:05:12;0.73;;;0.73;;
21886;SDS011;11108;49.988;8.182;2023-03-23T09:07:39;3.30;;;0.80;;
21886;SDS011;11108;49.988;8.182;2023-03-23T09:10:05;0.90;;;0.70;;
21886;SDS011;11108;49.988;8.182;2023-03-23T09:12:30;0.83;;;0.80;;
21886;SDS011;11108;49.988;8.182;2023-03-23T09:14:55;0.70;;;0.70;;
21886;SDS011;11108;49.988;8.182;2023-03-23T09:17:21;0.87;;;0.80;;
21886;SDS011;11108;49.988;8.182;2023-03-23T09:19:47;2.10;;;0.70;;
21886;SDS011;11108;49.988;8.182;2023-03-23T09:22:12;0.57;;;0.57;;
21886;SDS011;11108;49.988;8.182;2023-03-23T09:24:37;1.27;;;0.90;;
21886;SDS011;11108;49.988;8.182;2023-03-23T09:27:03;0.77;;;0.77;;
21886;SDS011;11108;49.988;8.182;2023-03-23T09:29:29;0.83;;;0.60;;
21886;SDS011;11108;49.988;8.182;2023-03-23T09:31:55;1.43;;;1.00;;
21886;SDS011;11108;49.988;8.182;2023-03-23T09:34:21;0.60;;;0.60;;
21886;SDS011;11108;49.988;8.182;2023-03-23T09:36:47;7.50;;;1.27;;
21886;SDS011;11108;49.988;8.182;2023-03-23T09:39:13;0.83;;;0.60;;
21886;SDS011;11108;49.988;8.182;2023-03-23T09:49:33;1.43;;;0.60;;
21886;SDS011;11108;49.988;8.182;2023-03-23T09:52:01;1.37;;;0.80;;
21886;SDS011;11108;49.988;8.182;2023-03-23T09:54:38;0.80;;;0.80;;
21886;SDS011;11108;49.988;8.182;2023-03-23T09:57:05;0.53;;;0.53;;
21886;SDS011;11108;49.988;8.182;2023-03-23T09:59:41;0.53;;;0.53;;
21886;SDS011;11108;49.988;8.182;2023-03-23T10:04:48;0.60;;;0.60;;
21886;SDS011;11108;49.988;8.182;2023-03-23T10:07:18;0.53;;;0.53;;
21886;SDS011;11108;49.988;8.182;2023-03-23T10:09:45;0.93;;;0.60;;
21886;SDS011;11108;49.988;8.182;2023-03-23T10:14:46;0.60;;;0.60;;
21886;SDS011;11108;49.988;8.182;2023-03-23T10:17:14;0.50;;;0.50;;
21886;SDS011;11108;49.988;8.182;2023-03-23T10:22:11;0.50;;;0.50;;
21886;SDS011;11108;49.988;8.182;2023-03-23T10:24:43;0.60;;;0.60;;
21886;SDS011;11108;49.988;8.182;2023-03-23T10:29:35;0.63;;;0.63;;
21886;SDS011;11108;49.988;8.182;2023-03-23T10:32:03;0.60;;;0.60;;
21886;SDS011;11108;49.988;8.182;2023-03-23T10:34:49;0.63;;;0.63;;
21886;SDS011;11108;49.988;8.182;2023-03-23T10:37:19;1.10;;;0.50;;
21886;SDS011;11108;49.988;8.182;2023-03-23T10:39:56;0.93;;;0.43;;
21886;SDS011;11108;49.988;8.182;2023-03-23T10:42:24;0.60;;;0.60;;
21886;SDS011;11108;49.988;8.182;2023-03-23T10:44:50;0.70;;;0.70;;
21886;SDS011;11108;49.988;8.182;2023-03-23T10:47:17;0.60;;;0.60;;
21886;SDS011;11108;49.988;8.182;2023-03-23T10:50:02;0.70;;;0.70;;
21886;SDS011;11108;49.988;8.182;2023-03-23T10:52:33;0.57;;;0.40;;
21886;SDS011;11108;49.988;8.182;2023-03-23T10:57:29;1.07;;;0.50;;
21886;SDS011;11108;49.988;8.182;2023-03-23T11:00:39;1.20;;;0.73;;
21886;SDS011;11108;49.988;8.182;2023-03-23T11:02:44;0.50;;;0.50;;
21886;SDS011;11108;49.988;8.182;2023-03-23T11:05:19;0.87;;;0.60;;
21886;SDS011;11108;49.988;8.182;2023-03-23T11:07:49;1.60;;;0.90;;
21886;SDS011;11108;49.988;8.182;2023-03-23T11:10:17;1.53;;;0.80;;
21886;SDS011;11108;49.988;8.182;2023-03-23T11:12:45;1.63;;;0.70;;
21886;SDS011;11108;49.988;8.182;2023-03-23T11:15:21;1.83;;;0.57;;
21886;SDS011;11108;49.988;8.182;2023-03-23T11:17:54;0.77;;;0.60;;
21886;SDS011;11108;49.988;8.182;2023-03-23T11:20:20;1.17;;;0.63;;
21886;SDS011;11108;49.988;8.182;2023-03-23T11:22:45;2.43;;;0.60;;
21886;SDS011;11108;49.988;8.182;2023-03-23T11:25:12;3.30;;;0.67;;
21886;SDS011;11108;49.988;8.182;2023-03-23T11:27:38;1.13;;;0.60;;
21886;SDS011;11108;49.988;8.182;2023-03-23T11:30:08;1.17;;;0.60;;
21886;SDS011;11108;49.988;8.182;2023-03-23T11:32:34;0.80;;;0.60;;
21886;SDS011;11108;49.988;8.182;2023-03-23T11:35:01;1.37;;;0.70;;
21886;SDS011;11108;49.988;8.182;2023-03-23T11:37:40;0.70;;;0.70;;
21886;SDS011;11108;49.988;8.182;2023-03-23T11:45:15;3.67;;;0.73;;
21886;SDS011;11108;49.988;8.182;2023-03-23T11:47:43;0.70;;;0.70;;
21886;SDS011;11108;49.988;8.182;2023-03-23T11:50:26;1.27;;;0.70;;
21886;SDS011;11108;49.988;8.182;2023-03-23T11:52:59;0.83;;;0.83;;
21886;SDS011;11108;49.988;8.182;2023-03-23T11:55:49;1.83;;;1.20;;
21886;SDS011;11108;49.988;8.182;2023-03-23T11:58:12;5.70;;;4.53;;
21886;SDS011;11108;49.988;8.182;2023-03-23T12:00:49;12.33;;;11.03;;
21886;SDS011;11108;49.988;8.182;2023-03-23T12:03:16;36.00;;;23.63;;
21886;SDS011;11108;49.988;8.182;2023-03-23T12:10:58;68.50;;;40.43;;
21886;SDS011;11108;49.988;8.182;2023-03-23T12:13:32;65.33;;;39.60;;
21886;SDS011;11108;49.988;8.182;2023-03-23T12:19:03;67.57;;;36.23;;
21886;SDS011;11108;49.988;8.182;2023-03-23T12:24:23;52.67;;;35.20;;
21886;SDS011;11108;49.988;8.182;2023-03-23T12:29:51;57.13;;;36.27;;
21886;SDS011;11108;49.988;8.182;2023-03-23T12:40:19;59.77;;;36.43;;
21886;SDS011;11108;49.988;8.182;2023-03-23T12:43:06;47.43;;;31.77;;
21886;SDS011;11108;49.988;8.182;2023-03-23T12:45:47;55.63;;;34.27;;
21886;SDS011;11108;49.988;8.182;2023-03-23T12:48:22;50.27;;;34.57;;
21886;SDS011;11108;49.988;8.182;2023-03-23T12:53:27;48.80;;;34.93;;
21886;SDS011;11108;49.988;8.182;2023-03-23T12:56:16;51.43;;;33.33;;
21886;SDS011;11108;49.988;8.182;2023-03-23T12:58:47;43.27;;;30.77;;
21886;SDS011;11108;49.988;8.182;2023-03-23T13:01:21;46.43;;;29.60;;
21886;SDS011;11108;49.988;8.182;2023-03-23T13:03:50;47.80;;;32.03;;
21886;SDS011;11108;49.988;8.182;2023-03-23T13:08:55;42.93;;;30.80;;
21886;SDS011;11108;49.988;8.182;2023-03-23T13:14:03;38.27;;;29.70;;
21886;SDS011;11108;49.988;8.182;2023-03-23T13:16:34;40.03;;;28.83;;
21886;SDS011;11108;49.988;8.182;2023-03-23T13:19:04;39.23;;;27.20;;
21886;SDS011;11108;49.988;8.182;2023-03-23T13:21:43;41.00;;;28.33;;
21886;SDS011;11108;49.988;8.182;2023-03-23T13:24:14;36.30;;;27.67;;
21886;SDS011;11108;49.988;8.182;2023-03-23T13:26:41;38.53;;;26.77;;
21886;SDS011;11108;49.988;8.182;2023-03-23T13:29:20;37.60;;;25.30;;
21886;SDS011;11108;49.988;8.182;2023-03-23T13:31:49;31.20;;;25.80;;
21886;SDS011;11108;49.988;8.182;2023-03-23T13:36:59;32.70;;;24.13;;
21886;SDS011;11108;49.988;8.182;2023-03-23T13:39:27;34.03;;;23.93;;
21886;SDS011;11108;49.988;8.182;2023-03-23T13:54:42;31.73;;;21.73;;
21886;SDS011;11108;49.988;8.182;2023-03-23T13:57:24;29.47;;;22.30;;
21886;SDS011;11108;49.988;8.182;2023-03-23T13:59:55;35.07;;;21.87;;
21886;SDS011;11108;49.988;8.182;2023-03-23T14:08:01;24.73;;;18.70;;
21886;SDS011;11108;49.988;8.182;2023-03-23T14:13:13;24.83;;;18.30;;
21886;SDS011;11108;49.988;8.182;2023-03-23T14:15:44;22.30;;;17.40;;
21886;SDS011;11108;49.988;8.182;2023-03-23T14:18:13;24.97;;;18.90;;
21886;SDS011;11108;49.988;8.182;2023-03-23T14:20:39;22.50;;;17.83;;
21886;SDS011;11108;49.988;8.182;2023-03-23T14:23:04;25.27;;;19.47;;
21886;SDS011;11108;49.988;8.182;2023-03-23T14:25:30;25.70;;;17.63;;
21886;SDS011;11108;49.988;8.182;2023-03-23T14:27:57;21.90;;;15.87;;
21886;SDS011;11108;49.988;8.182;2023-03-23T14:30:24;22.50;;;16.70;;
21886;SDS011;11108;49.988;8.182;2023-03-23T14:32:50;23.73;;;16.80;;
21886;SDS011;11108;49.988;8.182;2023-03-23T14:35:28;20.30;;;15.80;;
21886;SDS011;11108;49.988;8.182;2023-03-23T14:37:54;20.67;;;15.67;;
21886;SDS011;11108;49.988;8.182;2023-03-23T14:40:20;18.07;;;14.30;;
21886;SDS011;11108;49.988;8.182;2023-03-23T14:42:46;21.37;;;15.53;;
21886;SDS011;11108;49.988;8.182;2023-03-23T14:45:18;18.33;;;14.30;;
21886;SDS011;11108;49.988;8.182;2023-03-23T14:47:45;20.23;;;14.40;;
21886;SDS011;11108;49.988;8.182;2023-03-23T14:50:30;20.17;;;15.17;;
21886;SDS011;11108;49.988;8.182;2023-03-23T14:52:57;17.87;;;13.30;;
21886;SDS011;11108;49.988;8.182;2023-03-23T14:55:23;19.20;;;13.20;;
21886;SDS011;11108;49.988;8.182;2023-03-23T14:57:51;16.10;;;13.03;;
21886;SDS011;11108;49.988;8.182;2023-03-23T15:00:18;16.53;;;13.53;;
21886;SDS011;11108;49.988;8.182;2023-03-23T15:02:45;18.03;;;13.23;;
21886;SDS011;11108;49.988;8.182;2023-03-23T15:05:15;19.80;;;13.43;;
21886;SDS011;11108;49.988;8.182;2023-03-23T15:07:43;16.40;;;12.60;;
21886;SDS011;11108;49.988;8.182;2023-03-23T15:10:09;17.00;;;11.73;;
21886;SDS011;11108;49.988;8.182;2023-03-23T15:12:39;17.77;;;13.23;;
21886;SDS011;11108;49.988;8.182;2023-03-23T15:15:05;17.27;;;12.07;;
21886;SDS011;11108;49.988;8.182;2023-03-23T15:17:33;13.90;;;10.67;;
21886;SDS011;11108;49.988;8.182;2023-03-23T15:20:06;15.90;;;11.03;;
21886;SDS011;11108;49.988;8.182;2023-03-23T15:22:32;13.03;;;11.33;;
21886;SDS011;11108;49.988;8.182;2023-03-23T15:27:33;14.47;;;10.83;;
21886;SDS011;11108;49.988;8.182;2023-03-23T15:29:59;14.87;;;10.37;;
21886;SDS011;11108;49.988;8.182;2023-03-23T15:34:51;14.77;;;10.37;;
21886;SDS011;11108;49.988;8.182;2023-03-23T15:37:32;12.40;;;10.53;;
21886;SDS011;11108;49.988;8.182;2023-03-23T15:39:58;11.07;;;8.97;;
21886;SDS011;11108;49.988;8.182;2023-03-23T15:42:29;12.10;;;9.23;;
21886;SDS011;11108;49.988;8.182;2023-03-23T15:45:05;10.43;;;9.30;;
21886;SDS011;11108;49.988;8.182;2023-03-23T15:52:49;12.13;;;8.77;;
21886;SDS011;11108;49.988;8.182;2023-03-23T15:57:47;11.03;;;8.37;;
21886;SDS011;11108;49.988;8.182;2023-03-23T16:00:16;13.20;;;8.33;;
21886;SDS011;11108;49.988;8.182;2023-03-23T16:02:42;9.00;;;7.77;;
21886;SDS011;11108;49.988;8.182;2023-03-23T16:05:10;10.17;;;8.27;;
21886;SDS011;11108;49.988;8.182;2023-03-23T16:07:36;11.13;;;7.83;;
21886;SDS011;11108;49.988;8.182;2023-03-23T16:10:02;9.67;;;7.53;;
21886;SDS011;11108;49.988;8.182;2023-03-23T16:12:27;10.40;;;7.30;;
21886;SDS011;11108;49.988;8.182;2023-03-23T16:14:52;10.27;;;7.40;;
21886;SDS011;11108;49.988;8.182;2023-03-23T16:17:18;8.70;;;7.10;;
21886;SDS011;11108;49.988;8.182;2023-03-23T16:19:44;8.03;;;7.23;;
21886;SDS011;11108;49.988;8.182;2023-03-23T16:22:09;9.30;;;7.77;;
21886;SDS011;11108;49.988;8.182;2023-03-23T16:24:34;8.27;;;7.20;;
21886;SDS011;11108;49.988;8.182;2023-03-23T16:27:00;10.57;;;7.13;;
21886;SDS011;11108;49.988;8.182;2023-03-23T16:29:25;7.33;;;6.60;;
21886;SDS011;11108;49.988;8.182;2023-03-23T16:31:50;9.27;;;7.53;;
21886;SDS011;11108;49.988;8.182;2023-03-23T16:34:15;8.97;;;6.00;;
21886;SDS011;11108;49.988;8.182;2023-03-23T16:36:40;9.87;;;6.73;;
21886;SDS011;11108;49.988;8.182;2023-03-23T16:39:06;9.93;;;6.30;;